Time;durP1;ratioP1;P1;durP2;ratioP2;P2;SDS_P1;SDS_P2;PMS_P1;PMS_P2;Temp;Humidity;BMP_temperature;BMP_pressure;BME280_temperature;BME280_humidity;BME280_pressure;Samples;Min_cycle;Max_cycle;Signal;HPM_P1;HPM_P2
2023/06/14 00:02:07;;;;;;;6.53;6.03;;;;;;;;;;5009268;28;20425;-68
2023/06/14 00:04:35;;;;;;;6.30;5.80;;;;;;;;;;5008947;28;20435;-67
2023/06/14 00:07:02;;;;;;;6.07;5.57;;;;;;;;;;5002106;28;20500;-69
2023/06/14 00:09:29;;;;;;;6.20;5.60;;;;;;;;;;5008924;28;20473;-69
2023/06/14 00:11:56;;;;;;;6.55;5.95;;;;;;;;;;5011934;28;20432;-69
2023/06/14 00:14:24;;;;;;;6.30;5.70;;;;;;;;;;5011108;28;20429;-69
2023/06/14 00:16:52;;;;;;;6.40;5.80;;;;;;;;;;5001802;28;20417;-69
2023/06/14 00:19:19;;;;;;;6.32;5.72;;;;;;;;;;5004795;28;20707;-69
2023/06/14 00:21:46;;;;;;;6.70;6.00;;;;;;;;;;5015144;28;20513;-69
2023/06/14 00:24:13;;;;;;;6.70;6.10;;;;;;;;;;5007526;28;20431;-68
2023/06/14 00:26:40;;;;;;;6.45;5.85;;;;;;;;;;5013071;28;20426;-67
2023/06/14 00:29:07;;;;;;;7.45;6.85;;;;;;;;;;5008261;28;20450;-67
2023/06/14 00:31:36;;;;;;;7.30;6.70;;;;;;;;;;5013448;28;20438;-67
2023/06/14 00:34:03;;;;;;;8.13;7.43;;;;;;;;;;5000912;28;20432;-67
2023/06/14 00:36:30;;;;;;;6.75;6.25;;;;;;;;;;5009564;28;20526;-67
2023/06/14 00:38:57;;;;;;;7.03;6.18;;;;;;;;;;5017744;28;20450;-69
2023/06/14 00:41:24;;;;;;;7.00;6.30;;;;;;;;;;5011934;28;20435;-69
2023/06/14 00:43:53;;;;;;;6.90;6.30;;;;;;;;;;5011767;28;20453;-69
2023/06/14 00:46:22;;;;;;;6.32;5.80;;;;;;;;;;5020011;28;20901;-69
2023/06/14 00:48:50;;;;;;;6.60;6.00;;;;;;;;;;5017913;28;20950;-69
2023/06/14 00:51:17;;;;;;;6.30;5.70;;;;;;;;;;5005203;28;20437;-69
2023/06/14 00:53:46;;;;;;;6.80;6.10;;;;;;;;;;5011310;28;20793;-69
2023/06/14 00:56:14;;;;;;;6.80;6.30;;;;;;;;;;5015180;28;20425;-69
2023/06/14 00:58:42;;;;;;;6.70;6.00;;;;;;;;;;5010954;28;20476;-69
2023/06/14 01:01:09;;;;;;;6.15;5.65;;;;;;;;;;5007468;28;20463;-69
2023/06/14 01:03:37;;;;;;;6.53;6.03;;;;;;;;;;5011650;28;20437;-69
2023/06/14 01:06:10;;;;;;;6.50;5.90;;;;;;;;;;5004141;28;20421;-69
2023/06/14 01:08:43;;;;;;;7.70;6.20;;;;;;;;;;5004058;28;20445;-69
2023/06/14 01:11:13;;;;;;;6.20;5.70;;;;;;;;;;5031757;28;20445;-69
2023/06/14 01:13:43;;;;;;;6.57;5.97;;;;;;;;;;5016921;28;20746;-69
2023/06/14 01:16:11;;;;;;;6.72;6.13;;;;;;;;;;5001803;28;20867;-68
2023/06/14 01:18:39;;;;;;;6.75;6.15;;;;;;;;;;5006559;28;20415;-69
2023/06/14 01:21:08;;;;;;;6.32;5.82;;;;;;;;;;5014327;28;20765;-67
2023/06/14 01:23:37;;;;;;;6.30;5.80;;;;;;;;;;5012206;28;20471;-67
2023/06/14 01:26:04;;;;;;;6.25;5.75;;;;;;;;;;5009704;28;20471;-67
2023/06/14 01:28:33;;;;;;;9.00;8.40;;;;;;;;;;5011595;28;20436;-68
2023/06/14 01:31:03;;;;;;;8.20;7.60;;;;;;;;;;5000796;28;20416;-68
2023/06/14 01:33:31;;;;;;;8.27;7.60;;;;;;;;;;5010040;28;20502;-67
2023/06/14 01:35:58;;;;;;;7.90;7.30;;;;;;;;;;5009437;28;20431;-69
2023/06/14 01:38:26;;;;;;;7.97;7.38;;;;;;;;;;5010961;28;20532;-69
2023/06/14 01:40:56;;;;;;;8.55;7.85;;;;;;;;;;5020247;28;20441;-70
2023/06/14 01:43:24;;;;;;;8.40;7.80;;;;;;;;;;5011530;28;20861;-69
2023/06/14 01:45:52;;;;;;;8.30;7.60;;;;;;;;;;5020257;28;20523;-68
2023/06/14 01:48:19;;;;;;;8.75;8.05;;;;;;;;;;5019915;28;20901;-69
2023/06/14 01:50:47;;;;;;;8.13;7.40;;;;;;;;;;5019103;28;20438;-69
2023/06/14 01:53:14;;;;;;;6.50;6.00;;;;;;;;;;5014650;28;20777;-69
2023/06/14 01:55:43;;;;;;;6.97;5.90;;;;;;;;;;5002191;28;20877;-69
2023/06/14 01:58:13;;;;;;;5.88;5.32;;;;;;;;;;5015837;28;20433;-69
2023/06/14 02:00:40;;;;;;;6.28;5.75;;;;;;;;;;5017102;28;20419;-69
2023/06/14 02:03:07;;;;;;;5.78;5.28;;;;;;;;;;5006556;28;20929;-69
2023/06/14 02:05:34;;;;;;;6.20;5.60;;;;;;;;;;5007165;28;20743;-69
2023/06/14 02:08:02;;;;;;;6.45;5.88;;;;;;;;;;5019278;28;20450;-69
2023/06/14 02:10:29;;;;;;;6.30;5.80;;;;;;;;;;5014934;28;20431;-69
2023/06/14 02:12:56;;;;;;;5.57;5.07;;;;;;;;;;5014278;28;20439;-69
2023/06/14 02:15:27;;;;;;;5.85;5.45;;;;;;;;;;5039864;28;20694;-69
2023/06/14 02:17:54;;;;;;;6.28;5.68;;;;;;;;;;5004511;28;20445;-69
2023/06/14 02:20:21;;;;;;;8.40;7.80;;;;;;;;;;5007943;28;20842;-69
2023/06/14 02:22:48;;;;;;;8.63;8.10;;;;;;;;;;5013076;28;20892;-69
2023/06/14 02:25:15;;;;;;;9.30;8.70;;;;;;;;;;5017104;28;20507;-69
2023/06/14 02:27:42;;;;;;;8.75;8.15;;;;;;;;;;5011867;28;20430;-69
2023/06/14 02:30:10;;;;;;;8.50;7.90;;;;;;;;;;5021555;28;20415;-69
2023/06/14 02:32:40;;;;;;;8.80;8.10;;;;;;;;;;5008928;28;20859;-69
2023/06/14 02:35:08;;;;;;;9.68;8.98;;;;;;;;;;5019033;28;20429;-69
2023/06/14 02:37:35;;;;;;;8.40;7.80;;;;;;;;;;5010774;28;20443;-69
2023/06/14 02:40:02;;;;;;;9.00;8.30;;;;;;;;;;5009512;28;20782;-69
2023/06/14 02:42:29;;;;;;;9.10;8.40;;;;;;;;;;5009054;28;20481;-69
2023/06/14 02:44:56;;;;;;;8.02;7.43;;;;;;;;;;5021170;28;20432;-69
2023/06/14 02:47:24;;;;;;;7.03;6.53;;;;;;;;;;5032860;28;20433;-70
2023/06/14 02:49:52;;;;;;;8.32;7.72;;;;;;;;;;5017306;28;20930;-70
2023/06/14 02:52:20;;;;;;;9.32;8.63;;;;;;;;;;5031607;28;20431;-69
2023/06/14 02:54:47;;;;;;;7.63;7.05;;;;;;;;;;5015890;28;20423;-69
2023/06/14 02:57:14;;;;;;;7.10;6.50;;;;;;;;;;5024436;28;20573;-69
2023/06/14 02:59:41;;;;;;;7.25;6.75;;;;;;;;;;5016783;28;20861;-69
2023/06/14 03:02:08;;;;;;;8.85;8.15;;;;;;;;;;5017317;28;20514;-69
2023/06/14 03:04:37;;;;;;;6.30;5.80;;;;;;;;;;5015992;28;20431;-69
2023/06/14 03:07:08;;;;;;;6.43;5.93;;;;;;;;;;4990341;23;20463;-71
2023/06/14 03:09:36;;;;;;;6.43;5.82;;;;;;;;;;4968205;28;20440;-70
2023/06/14 03:12:03;;;;;;;6.15;5.65;;;;;;;;;;5006246;28;20432;-72
2023/06/14 03:14:30;;;;;;;6.20;5.60;;;;;;;;;;4990890;28;20562;-72
2023/06/14 03:16:58;;;;;;;5.85;5.35;;;;;;;;;;4959218;28;20508;-70
2023/06/14 03:19:26;;;;;;;6.10;5.50;;;;;;;;;;4992086;28;20433;-71
2023/06/14 03:21:56;;;;;;;6.30;5.70;;;;;;;;;;4990520;28;21087;-69
2023/06/14 03:24:27;;;;;;;6.15;5.55;;;;;;;;;;5025165;28;20425;-70
2023/06/14 03:26:54;;;;;;;5.97;5.25;;;;;;;;;;4994371;28;20946;-70
2023/06/14 03:29:21;;;;;;;6.45;5.65;;;;;;;;;;4995018;28;20446;-71
2023/06/14 03:31:58;;;;;;;5.32;4.93;;;;;;;;;;4966608;28;20478;-72
2023/06/14 03:34:25;;;;;;;5.65;5.15;;;;;;;;;;4950201;28;20495;-71
2023/06/14 03:36:52;;;;;;;5.40;5.00;;;;;;;;;;4974095;28;21011;-71
2023/06/14 03:39:20;;;;;;;5.95;5.32;;;;;;;;;;4987751;28;20443;-70
2023/06/14 03:41:48;;;;;;;5.95;5.45;;;;;;;;;;4990687;28;20428;-70
2023/06/14 03:44:16;;;;;;;5.70;5.20;;;;;;;;;;4960595;28;20436;-70
2023/06/14 03:46:43;;;;;;;5.95;5.35;;;;;;;;;;4948684;28;20457;-72
2023/06/14 03:49:10;;;;;;;5.60;5.10;;;;;;;;;;4957925;28;20455;-70
2023/06/14 03:51:38;;;;;;;6.68;5.90;;;;;;;;;;4998547;28;20485;-70
2023/06/14 03:54:05;;;;;;;6.78;5.80;;;;;;;;;;4969170;28;20449;-72
2023/06/14 03:56:32;;;;;;;5.70;5.20;;;;;;;;;;4978521;28;20433;-71
2023/06/14 03:59:00;;;;;;;6.50;5.90;;;;;;;;;;5044968;28;20432;-72
2023/06/14 04:01:29;;;;;;;5.70;5.20;;;;;;;;;;5003427;28;20815;-70
2023/06/14 04:03:57;;;;;;;7.13;5.57;;;;;;;;;;4957578;28;20761;-71
2023/06/14 04:06:32;;;;;;;6.10;5.50;;;;;;;;;;4967497;28;20684;-69
2023/06/14 04:09:03;;;;;;;6.15;5.25;;;;;;;;;;4990580;28;20741;-70
2023/06/14 04:11:30;;;;;;;7.47;5.55;;;;;;;;;;4956099;28;20444;-69
2023/06/14 04:13:57;;;;;;;7.88;5.55;;;;;;;;;;4948898;28;20773;-69
2023/06/14 04:16:26;;;;;;;5.72;5.22;;;;;;;;;;4959358;28;20419;-72
2023/06/14 04:18:54;;;;;;;6.10;5.40;;;;;;;;;;4954228;28;20512;-73
2023/06/14 04:21:23;;;;;;;6.57;5.88;;;;;;;;;;5006423;28;20540;-69
2023/06/14 04:23:52;;;;;;;5.60;5.10;;;;;;;;;;4982801;28;20442;-69
2023/06/14 04:26:20;;;;;;;8.18;5.57;;;;;;;;;;4949730;28;20434;-71
2023/06/14 04:28:49;;;;;;;5.60;5.20;;;;;;;;;;4949021;28;20576;-72
2023/06/14 04:31:16;;;;;;;6.00;5.50;;;;;;;;;;4949212;28;20726;-69
2023/06/14 04:33:46;;;;;;;5.85;5.25;;;;;;;;;;4949288;28;20442;-72
2023/06/14 04:36:13;;;;;;;6.20;5.60;;;;;;;;;;4946712;28;20438;-70
2023/06/14 04:38:42;;;;;;;5.55;5.05;;;;;;;;;;4958628;28;20448;-71
2023/06/14 04:41:11;;;;;;;5.60;5.10;;;;;;;;;;4954682;28;20426;-69
2023/06/14 04:43:39;;;;;;;6.10;5.50;;;;;;;;;;4969518;28;20437;-70
2023/06/14 04:46:10;;;;;;;5.10;4.70;;;;;;;;;;4944981;28;21072;-70
2023/06/14 04:48:37;;;;;;;5.80;5.25;;;;;;;;;;4950515;28;20539;-69
2023/06/14 04:51:06;;;;;;;6.47;4.80;;;;;;;;;;4998179;28;20469;-69
2023/06/14 04:53:33;;;;;;;5.43;4.63;;;;;;;;;;4950688;28;20438;-69
2023/06/14 04:56:02;;;;;;;5.05;4.60;;;;;;;;;;4977024;28;20430;-69
2023/06/14 04:58:30;;;;;;;5.47;4.68;;;;;;;;;;4960888;28;21012;-70
2023/06/14 05:00:59;;;;;;;4.80;4.40;;;;;;;;;;4952798;28;20808;-69
2023/06/14 05:03:26;;;;;;;6.45;5.20;;;;;;;;;;4948876;28;20425;-68
2023/06/14 05:05:54;;;;;;;5.53;5.03;;;;;;;;;;4943918;28;20479;-69
2023/06/14 05:08:24;;;;;;;5.63;4.60;;;;;;;;;;4947903;28;20439;-71
2023/06/14 05:10:51;;;;;;;6.00;5.00;;;;;;;;;;4956618;28;20437;-69
2023/06/14 05:13:18;;;;;;;5.10;4.60;;;;;;;;;;5005996;28;20425;-68
2023/06/14 05:15:45;;;;;;;5.78;5.18;;;;;;;;;;4965850;28;20442;-71
2023/06/14 05:18:13;;;;;;;5.43;4.60;;;;;;;;;;4971000;28;20460;-71
2023/06/14 05:20:41;;;;;;;5.78;5.18;;;;;;;;;;4950704;28;20468;-71
2023/06/14 05:23:08;;;;;;;7.00;4.50;;;;;;;;;;4974075;28;20410;-70
2023/06/14 05:25:37;;;;;;;5.43;4.93;;;;;;;;;;4955082;28;20804;-70
2023/06/14 05:28:05;;;;;;;5.15;4.65;;;;;;;;;;4949012;28;20430;-72
2023/06/14 05:30:33;;;;;;;5.10;4.60;;;;;;;;;;4948833;28;20812;-72
2023/06/14 05:33:00;;;;;;;6.68;4.32;;;;;;;;;;4998791;28;20966;-71
2023/06/14 05:35:27;;;;;;;4.63;4.00;;;;;;;;;;5014174;28;20413;-72
2023/06/14 05:37:54;;;;;;;5.57;4.10;;;;;;;;;;5003431;28;20951;-72
2023/06/14 05:40:23;;;;;;;4.60;4.18;;;;;;;;;;4970228;28;20402;-71
2023/06/14 05:42:51;;;;;;;4.53;4.13;;;;;;;;;;4952338;28;20834;-73
2023/06/14 05:45:18;;;;;;;5.72;4.38;;;;;;;;;;4945737;28;20422;-72
2023/06/14 05:47:45;;;;;;;4.60;4.20;;;;;;;;;;4989924;28;21098;-72
2023/06/14 05:50:12;;;;;;;5.32;4.28;;;;;;;;;;4974499;28;20445;-71
2023/06/14 05:52:39;;;;;;;5.07;4.03;;;;;;;;;;4988835;28;20530;-71
2023/06/14 05:55:07;;;;;;;5.00;4.50;;;;;;;;;;4996706;28;20819;-71
2023/06/14 05:57:34;;;;;;;4.68;4.28;;;;;;;;;;4953805;28;20433;-72
2023/06/14 06:00:09;;;;;;;4.28;3.88;;;;;;;;;;4976158;28;20429;-71
2023/06/14 06:02:36;;;;;;;3.80;3.50;;;;;;;;;;5009046;28;21217;-71
2023/06/14 06:05:03;;;;;;;4.85;4.00;;;;;;;;;;4965775;28;20416;-71
2023/06/14 06:07:30;;;;;;;6.63;3.80;;;;;;;;;;4992571;28;20433;-71
2023/06/14 06:09:57;;;;;;;4.00;3.30;;;;;;;;;;4990072;28;20432;-71
2023/06/14 06:12:24;;;;;;;4.90;3.67;;;;;;;;;;4952108;28;20434;-72
2023/06/14 06:14:51;;;;;;;4.43;3.60;;;;;;;;;;4951632;28;20442;-71
2023/06/14 06:17:20;;;;;;;4.32;3.78;;;;;;;;;;5026682;28;20429;-70
2023/06/14 06:19:47;;;;;;;3.80;3.40;;;;;;;;;;4969516;28;20447;-70
2023/06/14 06:22:14;;;;;;;4.20;3.80;;;;;;;;;;5018473;28;20439;-70
2023/06/14 06:24:41;;;;;;;4.05;3.60;;;;;;;;;;4961429;28;20425;-71
2023/06/14 06:27:08;;;;;;;3.95;3.65;;;;;;;;;;5005973;28;20748;-71
2023/06/14 06:29:35;;;;;;;4.65;3.50;;;;;;;;;;4978067;28;20463;-71
2023/06/14 06:32:02;;;;;;;5.60;3.40;;;;;;;;;;4960947;28;20450;-72
2023/06/14 06:34:31;;;;;;;4.93;3.35;;;;;;;;;;4952284;28;20504;-70
2023/06/14 06:36:58;;;;;;;6.10;3.67;;;;;;;;;;4972395;28;20809;-70
2023/06/14 06:39:25;;;;;;;4.88;3.60;;;;;;;;;;4988688;28;20417;-71
2023/06/14 06:41:52;;;;;;;4.18;3.20;;;;;;;;;;4950880;28;20433;-70
2023/06/14 06:44:19;;;;;;;3.95;3.25;;;;;;;;;;4944171;28;20424;-71
2023/06/14 06:46:47;;;;;;;4.80;3.28;;;;;;;;;;4955702;28;20450;-72
2023/06/14 06:49:14;;;;;;;3.40;3.10;;;;;;;;;;4998620;28;20437;-72
2023/06/14 06:51:44;;;;;;;3.80;3.10;;;;;;;;;;4996977;28;20943;-72
2023/06/14 06:54:11;;;;;;;4.43;2.92;;;;;;;;;;5007711;28;20444;-71
2023/06/14 06:56:38;;;;;;;3.60;3.30;;;;;;;;;;5029540;28;20421;-73
2023/06/14 06:59:06;;;;;;;3.38;3.00;;;;;;;;;;4950216;28;20426;-73
2023/06/14 07:01:33;;;;;;;3.13;2.88;;;;;;;;;;4962010;28;20431;-72
2023/06/14 07:04:01;;;;;;;4.63;3.50;;;;;;;;;;4965581;28;20422;-71
2023/06/14 07:06:28;;;;;;;3.67;3.28;;;;;;;;;;4979745;28;20448;-71
2023/06/14 07:09:01;;;;;;;3.67;3.30;;;;;;;;;;5013957;28;20422;-70
2023/06/14 07:11:28;;;;;;;3.90;3.10;;;;;;;;;;4989145;28;20426;-70
2023/06/14 07:13:55;;;;;;;3.72;3.05;;;;;;;;;;4963169;28;20438;-72
2023/06/14 07:16:23;;;;;;;5.78;3.25;;;;;;;;;;4981472;28;20893;-71
2023/06/14 07:18:50;;;;;;;3.30;3.00;;;;;;;;;;5004591;28;20463;-70
2023/06/14 07:21:17;;;;;;;4.35;3.10;;;;;;;;;;4981018;28;20442;-72
2023/06/14 07:23:45;;;;;;;3.53;3.00;;;;;;;;;;4978403;28;20426;-72
2023/06/14 07:26:13;;;;;;;3.92;2.78;;;;;;;;;;4968857;28;20438;-72
2023/06/14 07:28:40;;;;;;;3.55;3.10;;;;;;;;;;4971377;28;20445;-72
2023/06/14 07:31:07;;;;;;;4.32;2.80;;;;;;;;;;5009863;28;21069;-72
2023/06/14 07:33:34;;;;;;;3.25;2.80;;;;;;;;;;4999252;28;20470;-71
2023/06/14 07:36:01;;;;;;;2.95;2.30;;;;;;;;;;4949764;28;20422;-72
2023/06/14 07:38:28;;;;;;;3.38;3.00;;;;;;;;;;4989006;28;20433;-71
2023/06/14 07:40:56;;;;;;;2.90;2.30;;;;;;;;;;5002004;28;20433;-71
2023/06/14 07:43:24;;;;;;;4.63;2.40;;;;;;;;;;5014492;28;20784;-71
2023/06/14 07:45:51;;;;;;;3.45;2.70;;;;;;;;;;5015357;28;20440;-72
2023/06/14 07:48:18;;;;;;;3.25;2.17;;;;;;;;;;4960842;28;20430;-72
2023/06/14 07:50:45;;;;;;;3.20;2.40;;;;;;;;;;4953664;28;20426;-72
2023/06/14 07:53:12;;;;;;;2.97;2.20;;;;;;;;;;4980323;28;20452;-71
2023/06/14 07:55:39;;;;;;;2.90;2.40;;;;;;;;;;4999523;28;21042;-71
2023/06/14 07:58:06;;;;;;;2.42;2.10;;;;;;;;;;4950555;28;20425;-73
2023/06/14 08:00:35;;;;;;;2.13;1.90;;;;;;;;;;4951525;28;20916;-72
2023/06/14 08:03:02;;;;;;;2.47;1.90;;;;;;;;;;4976752;28;20428;-72
2023/06/14 08:05:29;;;;;;;2.85;2.03;;;;;;;;;;4979619;28;20434;-72
2023/06/14 08:07:56;;;;;;;2.78;1.90;;;;;;;;;;4966937;28;20429;-71
2023/06/14 08:10:24;;;;;;;3.70;2.03;;;;;;;;;;4982456;28;20428;-72
2023/06/14 08:12:51;;;;;;;4.43;2.00;;;;;;;;;;4971466;28;20461;-72
2023/06/14 08:15:18;;;;;;;2.47;2.03;;;;;;;;;;5005146;28;20812;-73
2023/06/14 08:17:47;;;;;;;1.90;1.70;;;;;;;;;;4958163;28;20446;-72
2023/06/14 08:20:16;;;;;;;1.90;1.45;;;;;;;;;;5002346;28;20800;-72
2023/06/14 08:22:46;;;;;;;2.00;1.35;;;;;;;;;;4950740;28;20506;-72
2023/06/14 08:25:13;;;;;;;1.70;1.20;;;;;;;;;;4989566;28;20461;-70
2023/06/14 08:27:41;;;;;;;1.40;1.20;;;;;;;;;;4978168;28;20456;-70
2023/06/14 08:30:09;;;;;;;2.40;1.40;;;;;;;;;;4948528;28;20425;-71
2023/06/14 08:32:37;;;;;;;2.00;1.23;;;;;;;;;;5012488;28;20429;-71
2023/06/14 08:35:07;;;;;;;1.70;1.40;;;;;;;;;;4949111;28;20442;-70
2023/06/14 08:37:34;;;;;;;1.60;1.50;;;;;;;;;;4959727;28;20478;-72
2023/06/14 08:40:01;;;;;;;1.90;1.55;;;;;;;;;;5000005;28;20853;-70
2023/06/14 08:42:28;;;;;;;1.60;1.40;;;;;;;;;;4981602;28;20431;-70
2023/06/14 08:44:57;;;;;;;2.40;1.50;;;;;;;;;;4967384;28;22543;-72
2023/06/14 08:47:26;;;;;;;1.73;1.37;;;;;;;;;;4954616;28;20426;-70
2023/06/14 08:49:55;;;;;;;2.60;1.80;;;;;;;;;;5016306;28;20427;-71
2023/06/14 08:52:23;;;;;;;2.20;1.50;;;;;;;;;;4974823;28;20917;-73
2023/06/14 08:54:51;;;;;;;5.10;1.50;;;;;;;;;;4970134;28;21451;-72
2023/06/14 08:57:20;;;;;;;2.15;1.52;;;;;;;;;;5000746;28;20429;-72
2023/06/14 08:59:52;;;;;;;1.70;1.50;;;;;;;;;;5016062;28;20945;-72
2023/06/14 09:02:19;;;;;;;1.60;1.40;;;;;;;;;;4987404;28;20445;-72
2023/06/14 09:04:46;;;;;;;2.50;1.50;;;;;;;;;;4985237;28;20503;-72
2023/06/14 09:07:13;;;;;;;3.35;1.60;;;;;;;;;;4963155;28;20425;-72
2023/06/14 09:09:42;;;;;;;3.08;1.80;;;;;;;;;;4989161;28;20472;-71
2023/06/14 09:12:11;;;;;;;1.80;1.30;;;;;;;;;;4995866;28;20867;-71
2023/06/14 09:14:40;;;;;;;1.88;1.40;;;;;;;;;;4948614;28;20434;-72
2023/06/14 09:17:07;;;;;;;2.60;1.50;;;;;;;;;;4953893;28;20431;-72
2023/06/14 09:19:36;;;;;;;1.58;1.48;;;;;;;;;;4995343;28;20436;-71
2023/06/14 09:22:04;;;;;;;2.15;1.60;;;;;;;;;;4980746;28;20431;-71
2023/06/14 09:24:31;;;;;;;2.92;1.40;;;;;;;;;;4971982;28;20440;-72
2023/06/14 09:27:00;;;;;;;2.40;1.40;;;;;;;;;;4977469;28;20434;-72
2023/06/14 09:29:27;;;;;;;2.90;1.40;;;;;;;;;;4992285;28;20524;-71
2023/06/14 09:31:54;;;;;;;1.50;1.38;;;;;;;;;;4997007;28;20522;-70
2023/06/14 09:34:24;;;;;;;2.42;1.70;;;;;;;;;;4967387;28;20440;-72
2023/06/14 09:36:51;;;;;;;1.40;1.30;;;;;;;;;;4948605;28;20879;-72
2023/06/14 09:39:19;;;;;;;2.30;1.70;;;;;;;;;;4966604;28;20446;-72
2023/06/14 09:41:46;;;;;;;1.80;1.70;;;;;;;;;;4989623;28;20464;-72
2023/06/14 09:44:15;;;;;;;1.90;1.70;;;;;;;;;;5004176;28;20413;-72
2023/06/14 09:46:42;;;;;;;2.78;1.40;;;;;;;;;;4956008;28;20420;-71
2023/06/14 09:49:10;;;;;;;2.40;1.30;;;;;;;;;;4973084;28;20436;-71
2023/06/14 09:51:44;;;;;;;3.03;1.80;;;;;;;;;;4998751;28;20480;-71
2023/06/14 09:54:15;;;;;;;2.10;1.45;;;;;;;;;;4964671;28;20429;-71
2023/06/14 09:56:44;;;;;;;1.70;1.30;;;;;;;;;;5038157;28;20406;-71
2023/06/14 09:59:11;;;;;;;2.97;1.50;;;;;;;;;;4968078;28;20448;-71
2023/06/14 10:01:42;;;;;;;4.00;1.70;;;;;;;;;;5029360;28;20413;-71
2023/06/14 10:04:11;;;;;;;2.45;1.30;;;;;;;;;;4962498;28;20969;-70
2023/06/14 10:06:39;;;;;;;1.90;1.30;;;;;;;;;;5027414;28;20439;-72
2023/06/14 10:09:08;;;;;;;1.70;1.58;;;;;;;;;;5017726;28;20433;-72
2023/06/14 10:11:36;;;;;;;2.70;1.50;;;;;;;;;;4964209;28;20456;-71
2023/06/14 10:14:04;;;;;;;2.47;1.40;;;;;;;;;;4960359;28;20883;-71
2023/06/14 10:16:33;;;;;;;2.00;1.50;;;;;;;;;;4941501;28;20495;-70
2023/06/14 10:19:06;;;;;;;2.30;1.48;;;;;;;;;;5000577;28;20436;-72
2023/06/14 10:21:35;;;;;;;2.37;1.30;;;;;;;;;;4988620;28;20834;-70
2023/06/14 10:24:05;;;;;;;1.67;1.15;;;;;;;;;;5002661;28;20500;-72
2023/06/14 10:26:32;;;;;;;3.00;2.65;;;;;;;;;;4987833;28;20440;-71
2023/06/14 10:29:01;;;;;;;1.90;1.50;;;;;;;;;;4978745;28;20437;-70
2023/06/14 10:31:44;;;;;;;2.47;1.50;;;;;;;;;;4990011;28;20425;-70
2023/06/14 10:34:12;;;;;;;2.08;1.40;;;;;;;;;;4951033;28;20425;-70
2023/06/14 10:36:41;;;;;;;1.52;1.40;;;;;;;;;;4974665;28;20426;-71
2023/06/14 10:39:09;;;;;;;2.20;1.60;;;;;;;;;;4950497;28;20943;-70
2023/06/14 10:41:37;;;;;;;1.50;1.20;;;;;;;;;;4998623;28;20452;-70
2023/06/14 10:44:34;;;;;;;1.30;1.10;;;;;;;;;;4970776;28;20428;-70
2023/06/14 10:47:02;;;;;;;1.60;1.15;;;;;;;;;;4960521;28;20424;-72
2023/06/14 10:49:44;;;;;;;2.00;1.30;;;;;;;;;;4972136;28;20437;-72
2023/06/14 10:52:18;;;;;;;1.30;1.20;;;;;;;;;;4948194;28;20430;-71
2023/06/14 10:55:14;;;;;;;1.50;1.40;;;;;;;;;;4989556;28;20430;-69
2023/06/14 10:57:41;;;;;;;1.80;1.40;;;;;;;;;;5026854;28;20462;-71
2023/06/14 11:00:13;;;;;;;1.53;1.40;;;;;;;;;;4991297;28;20425;-71
2023/06/14 11:03:10;;;;;;;2.63;1.40;;;;;;;;;;5017091;28;20456;-70
2023/06/14 11:05:44;;;;;;;1.50;1.30;;;;;;;;;;4950369;28;20619;-70
2023/06/14 11:08:23;;;;;;;1.50;1.30;;;;;;;;;;4943297;28;20427;-70
2023/06/14 11:10:50;;;;;;;1.30;1.20;;;;;;;;;;5007482;28;20946;-71
2023/06/14 11:13:17;;;;;;;1.50;1.30;;;;;;;;;;4998822;28;20544;-71
2023/06/14 11:15:45;;;;;;;1.40;1.30;;;;;;;;;;4951353;28;20433;-70
2023/06/14 11:18:13;;;;;;;1.30;1.20;;;;;;;;;;4957550;28;20429;-70
2023/06/14 11:20:41;;;;;;;2.10;1.30;;;;;;;;;;5002547;28;20444;-71
2023/06/14 11:23:10;;;;;;;1.30;1.20;;;;;;;;;;4979392;28;20434;-71
2023/06/14 11:25:37;;;;;;;1.70;1.25;;;;;;;;;;4957768;28;20446;-70
2023/06/14 11:28:04;;;;;;;1.60;1.50;;;;;;;;;;4988633;28;20425;-70
2023/06/14 11:30:31;;;;;;;2.20;1.42;;;;;;;;;;5027382;28;20919;-70
2023/06/14 11:32:58;;;;;;;1.83;1.60;;;;;;;;;;4963212;28;20470;-69
2023/06/14 11:35:26;;;;;;;1.70;1.30;;;;;;;;;;4950139;28;20430;-71
2023/06/14 11:37:55;;;;;;;1.40;1.27;;;;;;;;;;4947651;28;20904;-72
2023/06/14 11:40:25;;;;;;;2.15;1.20;;;;;;;;;;4945437;28;20445;-72
2023/06/14 11:42:52;;;;;;;3.10;1.33;;;;;;;;;;5001087;28;20417;-72
2023/06/14 11:45:19;;;;;;;1.70;1.23;;;;;;;;;;4972174;28;20437;-72
2023/06/14 11:47:46;;;;;;;1.30;1.20;;;;;;;;;;4960242;28;20443;-72
2023/06/14 11:50:14;;;;;;;2.30;1.20;;;;;;;;;;4969797;28;20409;-72
2023/06/14 11:52:41;;;;;;;1.80;0.97;;;;;;;;;;4957515;28;20441;-71
2023/06/14 11:55:08;;;;;;;1.67;1.20;;;;;;;;;;4985493;28;20433;-72
2023/06/14 11:57:38;;;;;;;1.20;1.10;;;;;;;;;;4951593;28;20439;-72
2023/06/14 12:00:11;;;;;;;1.95;1.20;;;;;;;;;;4946470;28;20463;-72
2023/06/14 12:02:40;;;;;;;1.50;1.10;;;;;;;;;;4973025;28;20449;-71
2023/06/14 12:05:09;;;;;;;1.60;1.10;;;;;;;;;;4980617;28;20424;-71
2023/06/14 12:07:39;;;;;;;1.35;1.00;;;;;;;;;;4945016;28;20445;-71
2023/06/14 12:10:08;;;;;;;1.20;1.10;;;;;;;;;;4945340;28;20535;-73
2023/06/14 12:12:38;;;;;;;1.30;1.10;;;;;;;;;;4982745;28;20440;-71
2023/06/14 12:15:06;;;;;;;1.35;0.82;;;;;;;;;;4996962;28;20529;-71
2023/06/14 12:17:33;;;;;;;1.10;0.80;;;;;;;;;;4954808;28;20502;-70
2023/06/14 12:20:00;;;;;;;1.20;1.00;;;;;;;;;;5026336;28;20409;-72
2023/06/14 12:22:30;;;;;;;0.82;0.80;;;;;;;;;;4978633;28;20456;-71
2023/06/14 12:24:57;;;;;;;0.95;0.90;;;;;;;;;;4948959;28;20484;-71
2023/06/14 12:27:28;;;;;;;0.90;0.70;;;;;;;;;;4966293;28;20928;-72
2023/06/14 12:30:07;;;;;;;1.88;1.00;;;;;;;;;;4976784;28;20875;-71
2023/06/14 12:32:34;;;;;;;1.30;1.10;;;;;;;;;;4951368;28;20441;-71
2023/06/14 12:35:01;;;;;;;0.80;0.80;;;;;;;;;;4952922;28;20438;-71
2023/06/14 12:37:29;;;;;;;0.90;0.90;;;;;;;;;;4981651;28;20928;-72
2023/06/14 12:39:56;;;;;;;2.10;1.02;;;;;;;;;;4962143;28;20938;-70
2023/06/14 12:42:23;;;;;;;2.42;1.35;;;;;;;;;;4984590;28;20424;-72
2023/06/14 12:44:50;;;;;;;2.33;1.10;;;;;;;;;;4973653;28;20446;-72
2023/06/14 12:47:18;;;;;;;1.25;0.85;;;;;;;;;;4967078;28;20792;-72
2023/06/14 12:49:45;;;;;;;1.40;1.00;;;;;;;;;;4936260;28;21058;-72
2023/06/14 12:52:12;;;;;;;1.48;0.80;;;;;;;;;;4980151;28;20802;-71
2023/06/14 12:54:40;;;;;;;1.33;0.82;;;;;;;;;;4969494;28;20439;-72
2023/06/14 12:57:08;;;;;;;1.30;0.80;;;;;;;;;;5050937;28;20402;-71
2023/06/14 12:59:35;;;;;;;0.95;0.70;;;;;;;;;;4954645;28;20438;-70
2023/06/14 13:02:11;;;;;;;1.27;0.70;;;;;;;;;;4950038;28;20436;-71
2023/06/14 13:04:40;;;;;;;0.82;0.60;;;;;;;;;;4984019;28;20440;-72
2023/06/14 13:07:07;;;;;;;1.60;0.60;;;;;;;;;;4971360;28;20438;-72
2023/06/14 13:09:35;;;;;;;1.90;0.70;;;;;;;;;;4952552;28;20532;-71
2023/06/14 13:12:02;;;;;;;1.50;0.60;;;;;;;;;;4982909;28;21396;-72
2023/06/14 13:14:29;;;;;;;1.95;0.70;;;;;;;;;;4946552;28;20808;-72
2023/06/14 13:16:56;;;;;;;2.77;0.70;;;;;;;;;;4952527;28;20450;-72
2023/06/14 13:19:23;;;;;;;2.17;1.10;;;;;;;;;;4942334;28;20449;-72
2023/06/14 13:21:51;;;;;;;1.90;1.00;;;;;;;;;;4996067;28;20426;-72
2023/06/14 13:24:18;;;;;;;1.17;0.82;;;;;;;;;;4975408;28;20685;-72
2023/06/14 13:26:45;;;;;;;1.58;0.90;;;;;;;;;;4974218;28;20434;-72
2023/06/14 13:29:12;;;;;;;1.35;0.90;;;;;;;;;;4986928;28;20520;-72
2023/06/14 13:31:39;;;;;;;1.00;0.90;;;;;;;;;;5027185;28;20446;-72
2023/06/14 13:34:07;;;;;;;2.00;1.00;;;;;;;;;;4987903;28;20435;-72
2023/06/14 13:36:34;;;;;;;1.92;1.10;;;;;;;;;;5019667;28;20451;-73
2023/06/14 13:39:03;;;;;;;2.10;1.00;;;;;;;;;;4972880;28;20497;-71
2023/06/14 13:41:33;;;;;;;1.60;1.20;;;;;;;;;;5007808;28;20429;-72
2023/06/14 13:44:00;;;;;;;2.67;1.20;;;;;;;;;;4946455;28;20426;-71
2023/06/14 13:46:27;;;;;;;2.00;1.58;;;;;;;;;;4946905;28;20454;-71
2023/06/14 13:48:54;;;;;;;2.00;1.27;;;;;;;;;;4976496;28;20432;-70
2023/06/14 13:51:21;;;;;;;2.20;1.20;;;;;;;;;;4938627;28;20462;-72
2023/06/14 13:53:50;;;;;;;2.08;1.10;;;;;;;;;;4961191;28;20437;-71
2023/06/14 13:56:19;;;;;;;2.27;1.37;;;;;;;;;;4960806;28;20824;-71
2023/06/14 13:58:46;;;;;;;2.10;1.30;;;;;;;;;;4965589;28;20445;-72
2023/06/14 14:01:13;;;;;;;2.22;1.50;;;;;;;;;;4946285;28;20441;-73
2023/06/14 14:03:40;;;;;;;1.73;1.27;;;;;;;;;;4952071;28;20445;-71
2023/06/14 14:06:07;;;;;;;1.90;1.47;;;;;;;;;;4948299;28;20437;-72
2023/06/14 14:08:34;;;;;;;2.30;2.20;;;;;;;;;;4947082;28;20444;-72
2023/06/14 14:11:01;;;;;;;1.92;1.35;;;;;;;;;;4949336;28;20515;-72
2023/06/14 14:13:29;;;;;;;1.77;1.23;;;;;;;;;;4953928;28;20439;-72
2023/06/14 14:15:56;;;;;;;2.47;1.27;;;;;;;;;;4945242;28;20461;-73
2023/06/14 14:18:23;;;;;;;2.40;1.20;;;;;;;;;;4979547;28;20413;-72
2023/06/14 14:20:51;;;;;;;3.88;1.20;;;;;;;;;;4977278;28;20482;-72
2023/06/14 14:23:19;;;;;;;1.30;1.20;;;;;;;;;;5024845;28;20446;-72
2023/06/14 14:25:47;;;;;;;1.60;1.50;;;;;;;;;;4944468;28;20509;-73
2023/06/14 14:28:15;;;;;;;1.55;1.45;;;;;;;;;;4956523;28;20939;-72
2023/06/14 14:30:44;;;;;;;2.03;1.60;;;;;;;;;;4950244;28;20430;-72
2023/06/14 14:33:15;;;;;;;1.95;1.33;;;;;;;;;;4994067;28;20434;-71
2023/06/14 14:35:42;;;;;;;1.60;1.50;;;;;;;;;;4959473;28;20437;-70
2023/06/14 14:38:10;;;;;;;1.30;1.20;;;;;;;;;;4982869;28;20422;-71
2023/06/14 14:40:37;;;;;;;1.60;1.30;;;;;;;;;;5000511;28;20938;-72
2023/06/14 14:43:04;;;;;;;1.40;1.30;;;;;;;;;;4998355;28;21059;-72
2023/06/14 14:45:32;;;;;;;2.30;1.52;;;;;;;;;;4951354;28;20449;-71
2023/06/14 14:48:01;;;;;;;1.77;1.42;;;;;;;;;;5005589;28;20417;-72
2023/06/14 14:50:28;;;;;;;2.08;1.30;;;;;;;;;;4974527;28;20826;-73